Time;durP1;ratioP1;P1;durP2;ratioP2;P2;SDS_P1;SDS_P2;PMS_P1;PMS_P2;Temp;Humidity;BMP_temperature;BMP_pressure;BME280_temperature;BME280_humidity;BME280_pressure;Samples;Min_cycle;Max_cycle;Signal;HPM_P1;HPM_P2
2022/12/27 00:00:14;;;;;;;19.20;13.80;;;;;;;1.21;100.00;97715.16;108059;1260;58956;-65
2022/12/27 00:03:03;;;;;;;29.90;21.70;;;;;;;1.19;100.00;97725.34;108052;1263;58901;-66
2022/12/27 00:05:32;;;;;;;24.30;19.20;;;;;;;1.12;100.00;97730.38;108056;1263;71288;-65
2022/12/27 00:08:01;;;;;;;21.10;14.00;;;;;;;1.07;100.00;97724.17;108017;1252;68715;-65
2022/12/27 00:10:30;;;;;;;19.10;15.00;;;;;;;1.06;100.00;97720.06;108013;1261;69107;-66
2022/12/27 00:12:59;;;;;;;18.10;13.40;;;;;;;1.09;100.00;97716.02;108062;1266;58916;-65
2022/12/27 00:15:31;;;;;;;16.70;13.40;;;;;;;1.13;100.00;97714.20;108022;1264;58889;-65
2022/12/27 00:18:00;;;;;;;20.60;17.90;;;;;;;1.17;100.00;97703.95;108070;1264;70492;-65
2022/12/27 00:20:29;;;;;;;18.20;12.50;;;;;;;1.22;100.00;97690.73;108100;1263;68464;-65
2022/12/27 00:23:00;;;;;;;15.70;13.10;;;;;;;1.30;100.00;97682.96;108027;1263;68422;-65
2022/12/27 00:25:29;;;;;;;17.30;13.10;;;;;;;1.36;100.00;97684.98;108014;1264;59710;-65
2022/12/27 00:27:57;;;;;;;16.30;11.70;;;;;;;1.42;100.00;97691.83;108007;1257;59696;-66
2022/12/27 00:30:26;;;;;;;17.30;13.20;;;;;;;1.45;100.00;97689.16;107952;1264;72079;-66
2022/12/27 00:32:56;;;;;;;17.40;12.80;;;;;;;1.49;100.00;97690.39;108096;1259;69391;-65
2022/12/27 00:35:26;;;;;;;16.40;12.50;;;;;;;1.50;100.00;97697.94;108004;1263;69755;-65
2022/12/27 00:37:56;;;;;;;17.30;11.70;;;;;;;1.51;100.00;97693.58;108034;1263;59751;-65
2022/12/27 00:40:25;;;;;;;18.50;14.10;;;;;;;1.48;100.00;97693.69;108019;1264;59748;-66
2022/12/27 00:42:54;;;;;;;19.80;14.70;;;;;;;1.46;100.00;97689.29;108062;1255;70453;-65
2022/12/27 00:45:23;;;;;;;20.40;16.30;;;;;;;1.40;100.00;97687.60;108026;1264;69102;-65
2022/12/27 00:47:52;;;;;;;24.60;17.00;;;;;;;1.31;100.00;97688.39;107968;1264;68502;-65
2022/12/27 00:50:22;;;;;;;24.90;19.80;;;;;;;1.26;100.00;97682.05;108058;1264;59713;-65
2022/12/27 00:52:51;;;;;;;19.00;14.80;;;;;;;1.20;100.00;97675.70;108083;1258;59741;-64
2022/12/27 00:55:20;;;;;;;17.70;13.80;;;;;;;1.23;100.00;97676.13;108015;1260;72052;-65
2022/12/27 00:57:49;;;;;;;18.40;13.90;;;;;;;1.26;100.00;97672.05;107990;1257;68399;-65
2022/12/27 01:00:18;;;;;;;22.20;15.40;;;;;;;1.31;100.00;97671.07;108074;1264;69221;-65
2022/12/27 01:02:47;;;;;;;22.50;17.70;;;;;;;1.35;100.00;97669.40;108036;1263;60073;-65
2022/12/27 01:05:17;;;;;;;;;;;;;;;1.38;100.00;97670.65;108062;1267;59668;-64
2022/12/27 01:07:47;;;;;;;17.40;12.90;;;;;;;1.43;100.00;97668.29;108077;1263;71350;-66
2022/12/27 01:10:15;;;;;;;15.10;11.40;;;;;;;1.49;100.00;97661.87;108037;1264;69839;-66
2022/12/27 01:12:45;;;;;;;18.20;13.30;;;;;;;1.60;100.00;97659.31;108095;1257;70015;-66
2022/12/27 01:15:14;;;;;;;14.90;10.90;;;;;;;1.67;100.00;97657.34;108068;1255;59730;-65
2022/12/27 01:17:43;;;;;;;15.60;11.50;;;;;;;1.72;100.00;97659.08;108092;1263;59712;-66
2022/12/27 01:20:12;;;;;;;16.90;12.10;;;;;;;1.76;100.00;97653.94;108056;1264;71350;-65
2022/12/27 01:22:42;;;;;;;13.90;11.10;;;;;;;1.79;100.00;97649.91;108090;1264;68465;-65
2022/12/27 01:25:11;;;;;;;18.50;13.20;;;;;;;1.81;100.00;97648.13;108055;1264;68440;-65
2022/12/27 01:27:40;;;;;;;15.60;11.80;;;;;;;1.81;100.00;97652.93;108063;1264;59699;-64
2022/12/27 01:30:10;;;;;;;21.30;18.00;;;;;;;1.81;100.00;97648.80;108079;1264;59711;-66
2022/12/27 01:32:40;;;;;;;21.80;15.40;;;;;;;1.81;100.00;97649.52;108056;1260;70920;-65
2022/12/27 01:35:10;;;;;;;24.80;19.10;;;;;;;1.79;100.00;97649.02;108032;1264;69240;-65
2022/12/27 01:37:39;;;;;;;25.90;19.50;;;;;;;1.77;100.00;97648.42;108057;1264;69377;-65
2022/12/27 01:40:09;;;;;;;23.20;17.50;;;;;;;1.74;100.00;97649.89;108063;1260;59687;-65
2022/12/27 01:42:51;;;;;;;19.80;14.70;;;;;;;1.73;100.00;97647.71;108050;1263;59667;-65
2022/12/27 01:45:22;;;;;;;18.40;11.90;;;;;;;1.76;100.00;97644.33;108113;1264;72062;-64
2022/12/27 01:47:54;;;;;;;16.20;12.60;;;;;;;1.83;100.00;97647.70;108008;1261;68212;-64
2022/12/27 01:50:35;;;;;;;17.50;12.90;;;;;;;1.88;100.00;97642.89;108010;1264;67331;-64
2022/12/27 01:53:16;;;;;;;20.50;15.30;;;;;;;1.92;100.00;97640.67;108022;1264;59718;-64
2022/12/27 01:56:10;;;;;;;21.30;16.90;;;;;;;1.94;100.00;97634.27;108029;1266;59710;-65
2022/12/27 01:58:48;;;;;;;35.40;26.70;;;;;;;1.92;100.00;97641.56;108005;1260;70530;-65
2022/12/27 02:01:31;;;;;;;35.20;26.00;;;;;;;1.88;100.00;97640.98;108024;1267;69174;-65
2022/12/27 02:04:14;;;;;;;31.40;21.70;;;;;;;1.85;100.00;97632.53;108061;1256;69696;-64
2022/12/27 02:06:46;;;;;;;22.30;17.60;;;;;;;1.83;100.00;97628.30;108046;1264;59756;-64
2022/12/27 02:09:58;;;;;;;16.80;13.00;;;;;;;1.85;100.00;97624.27;108077;1261;59692;-64
2022/12/27 02:12:29;;;;;;;19.40;14.90;;;;;;;1.90;100.00;97623.23;107814;1267;72017;-64
2022/12/27 02:15:01;;;;;;;22.50;17.50;;;;;;;1.94;100.00;97619.64;108105;1260;68498;-64
2022/12/27 02:17:33;;;;;;;20.40;16.10;;;;;;;1.98;100.00;97612.79;108069;1264;69371;-64
2022/12/27 02:20:20;;;;;;;18.70;13.30;;;;;;;2.03;100.00;97612.98;108010;1263;59755;-65
2022/12/27 02:26:38;;;;;;;15.20;12.50;;;;;;;2.16;100.00;97610.48;108058;1264;71913;-64
2022/12/27 02:29:16;;;;;;;13.50;10.50;;;;;;;2.21;100.00;97604.95;108094;1264;68245;-65
2022/12/27 02:32:03;;;;;;;14.90;12.10;;;;;;;2.27;100.00;97603.70;108034;1260;69272;-64
2022/12/27 02:34:51;;;;;;;15.10;12.40;;;;;;;2.32;100.00;97606.61;108073;1260;59771;-64
2022/12/27 02:37:24;;;;;;;19.00;12.70;;;;;;;2.37;100.00;97604.70;108062;1263;59720;-65
2022/12/27 02:53:02;;;;;;;15.50;11.20;;;;;;;2.41;100.00;97603.70;108063;1263;71385;-65
2022/12/27 02:55:16;;;;;;;16.90;11.20;;;;;;;2.62;100.00;97598.95;107693;1266;71209;-65
2022/12/27 02:57:59;;;;;;;18.30;13.00;;;;;;;2.65;100.00;97598.48;107701;1270;69119;-65
2022/12/27 03:03:43;;;;;;;18.60;13.50;;;;;;;2.66;100.00;97601.55;107972;1267;59712;-65
2022/12/27 03:06:39;;;;;;;14.30;10.70;;;;;;;2.67;100.00;97592.23;107963;1257;59755;-65
2022/12/27 03:18:41;;;;;;;19.60;14.70;;;;;;;2.58;100.00;97593.41;108044;1263;59781;-65
2022/12/27 03:27:35;;;;;;;12.40;10.10;;;;;;;2.67;100.00;97583.09;108062;1263;69917;-64
2022/12/27 03:33:14;;;;;;;11.00;8.90;;;;;;;2.73;100.00;97578.73;107977;1267;59720;-65
2022/12/27 03:39:11;;;;;;;12.00;8.80;;;;;;;2.80;100.00;97581.02;108143;1260;70784;-64
2022/12/27 03:44:41;;;;;;;14.50;10.70;;;;;;;2.85;100.00;97573.10;108026;1264;69221;-64
2022/12/27 03:47:23;;;;;;;10.20;8.40;;;;;;;2.88;100.00;97575.92;108065;1264;59760;-65
2022/12/27 03:50:05;;;;;;;11.50;8.60;;;;;;;2.91;100.00;97576.31;108092;1264;59693;-66
2022/12/27 03:52:43;;;;;;;12.60;8.00;;;;;;;2.94;100.00;97577.20;108115;1264;71257;-65
2022/12/27 03:55:14;;;;;;;11.30;7.80;;;;;;;2.99;100.00;97583.91;108097;1260;69198;-67
2022/12/27 03:57:44;;;;;;;12.00;7.70;;;;;;;3.02;100.00;97580.70;108022;1262;69291;-65
2022/12/27 04:00:14;;;;;;;11.30;8.40;;;;;;;3.04;100.00;97574.22;108104;1260;59759;-66
2022/12/27 04:02:44;;;;;;;10.60;8.00;;;;;;;3.07;100.00;97566.55;108096;1258;59701;-65
2022/12/27 04:05:15;;;;;;;11.40;8.00;;;;;;;3.08;100.00;97574.10;108065;1264;71388;-65
2022/12/27 04:35:47;;;;;;;13.90;10.40;;;;;;;3.00;100.00;97548.89;108104;1257;69914;-65
2022/12/27 04:38:17;;;;;;;;;;;;;;;3.04;100.00;97545.98;108143;1260;69250;-64
2022/12/27 04:55:17;;;;;;;23.50;16.00;;;;;;;3.06;100.00;97532.13;108032;1264;59761;-65
2022/12/27 04:57:48;;;;;;;23.60;18.00;;;;;;;3.04;100.00;97529.98;108058;1264;59684;-65
2022/12/27 05:03:14;;;;;;;26.80;19.80;;;;;;;3.02;100.00;97533.51;108078;1263;68497;-65
2022/12/27 05:05:45;;;;;;;26.00;17.60;;;;;;;2.98;100.00;97527.29;108043;1264;69681;-64
2022/12/27 05:13:59;;;;;;;20.80;15.30;;;;;;;3.03;100.00;97547.41;108034;1265;72377;-65
2022/12/27 05:16:36;;;;;;;18.20;13.50;;;;;;;3.02;100.00;97553.49;108002;1264;69296;-65
2022/12/27 05:19:08;;;;;;;18.50;14.70;;;;;;;3.02;100.00;97554.84;108090;1264;69023;-64
2022/12/27 05:27:19;;;;;;;17.20;13.70;;;;;;;3.09;100.00;97550.28;107560;1264;662134;-64
2022/12/27 05:29:48;;;;;;;13.20;10.20;;;;;;;3.10;100.00;97553.52;108045;1266;69848;-64
2022/12/27 05:32:17;;;;;;;14.40;9.90;;;;;;;3.12;100.00;97552.24;108073;1266;69920;-65
2022/12/27 05:34:46;;;;;;;13.70;10.20;;;;;;;3.13;100.00;97552.20;108042;1267;59709;-65
2022/12/27 05:37:16;;;;;;;15.10;11.00;;;;;;;3.12;100.00;97553.43;108066;1260;59654;-65
2022/12/27 05:39:45;;;;;;;16.40;11.00;;;;;;;3.13;100.00;97553.06;108064;1260;71423;-64
2022/12/27 05:42:14;;;;;;;12.60;8.70;;;;;;;3.16;100.00;97555.15;108076;1264;69161;-65
2022/12/27 05:44:42;;;;;;;16.70;11.10;;;;;;;3.20;100.00;97563.28;107967;1266;69731;-65
2022/12/27 05:47:12;;;;;;;15.30;11.70;;;;;;;3.24;100.00;97575.34;107979;1267;59713;-65
2022/12/27 05:49:41;;;;;;;19.50;13.90;;;;;;;3.28;100.00;97576.70;108016;1263;59724;-65
2022/12/27 05:52:10;;;;;;;20.00;13.80;;;;;;;3.30;100.00;97578.19;108067;1264;71307;-65
2022/12/27 05:54:40;;;;;;;16.90;13.40;;;;;;;3.32;100.00;97576.20;108063;1264;69717;-65
2022/12/27 05:57:09;;;;;;;13.80;9.60;;;;;;;3.35;100.00;97577.83;108048;1264;68461;-65
2022/12/27 05:59:38;;;;;;;13.60;9.00;;;;;;;3.38;100.00;97583.55;108055;1258;59717;-64
2022/12/27 06:02:07;;;;;;;35.60;26.90;;;;;;;3.41;100.00;97580.67;108021;1266;59700;-65
2022/12/27 06:04:37;;;;;;;55.00;39.00;;;;;;;3.36;100.00;97573.12;108075;1264;71411;-65
2022/12/27 06:07:06;;;;;;;41.00;31.10;;;;;;;3.24;100.00;97574.44;108187;1263;69644;-66
2022/12/27 06:09:34;;;;;;;45.90;30.20;;;;;;;3.09;100.00;97586.27;108069;1264;70258;-64
2022/12/27 06:12:04;;;;;;;46.20;37.30;;;;;;;3.04;100.00;97588.38;107955;1265;59739;-65
2022/12/27 06:14:34;;;;;;;39.60;30.20;;;;;;;2.99;100.00;97587.54;108055;1261;59699;-65
2022/12/27 06:17:02;;;;;;;33.30;27.00;;;;;;;2.95;100.00;97583.19;108034;1264;71344;-65
2022/12/27 06:19:32;;;;;;;26.20;20.10;;;;;;;2.95;100.00;97585.61;108156;1264;68697;-65
2022/12/27 06:22:01;;;;;;;51.10;34.50;;;;;;;2.97;100.00;97588.14;108076;1260;69889;-65
2022/12/27 06:24:31;;;;;;;81.90;49.70;;;;;;;3.00;100.00;97594.86;108038;1257;59703;-65
2022/12/27 06:27:05;;;;;;;44.90;31.10;;;;;;;3.01;100.00;97603.63;108088;1264;59697;-67
2022/12/27 06:29:33;;;;;;;33.10;21.30;;;;;;;3.03;100.00;97605.64;108063;1263;71003;-67
2022/12/27 06:32:03;;;;;;;32.60;21.40;;;;;;;3.04;100.00;97605.39;108058;1264;69783;-65
2022/12/27 06:34:31;;;;;;;36.10;27.50;;;;;;;3.08;100.00;97605.60;108029;1262;69872;-65
2022/12/27 06:37:01;;;;;;;38.30;28.60;;;;;;;3.08;100.00;97608.69;108060;1264;59759;-65
2022/12/27 06:39:29;;;;;;;48.70;32.80;;;;;;;3.06;100.00;97607.21;108119;1259;59648;-67
2022/12/27 06:41:58;;;;;;;86.50;56.40;;;;;;;3.06;100.00;97608.09;108080;1264;71397;-65
2022/12/27 06:44:28;;;;;;;73.30;50.60;;;;;;;3.04;100.00;97611.59;108033;1263;69164;-65
2022/12/27 06:46:56;;;;;;;60.90;42.80;;;;;;;3.02;100.00;97618.73;108087;1269;68359;-65
2022/12/27 06:49:25;;;;;;;57.80;42.00;;;;;;;3.04;100.00;97625.38;108013;1269;59761;-66
2022/12/27 06:51:54;;;;;;;63.50;43.30;;;;;;;3.14;100.00;97627.58;108133;1260;59760;-65
2022/12/27 06:54:28;;;;;;;53.80;37.10;;;;;;;3.17;100.00;97625.39;108111;1264;72046;-66
2022/12/27 06:56:57;;;;;;;37.30;25.30;;;;;;;3.22;100.00;97627.09;108056;1260;69830;-64
2022/12/27 06:59:26;;;;;;;41.50;26.20;;;;;;;3.26;100.00;97630.20;108044;1259;67309;-65
2022/12/27 07:01:55;;;;;;;49.60;33.30;;;;;;;3.29;100.00;97637.48;108099;1263;59781;-64
2022/12/27 07:04:24;;;;;;;36.30;25.60;;;;;;;3.31;100.00;97639.96;108068;1258;60058;-65
2022/12/27 07:06:53;;;;;;;37.10;28.00;;;;;;;3.33;100.00;97640.09;108136;1264;70871;-65
2022/12/27 07:09:22;;;;;;;38.30;26.90;;;;;;;3.32;100.00;97645.96;108083;1264;69230;-65
2022/12/27 07:11:52;;;;;;;36.20;27.90;;;;;;;3.34;100.00;97647.82;108013;1258;69912;-65
2022/12/27 07:14:21;;;;;;;35.50;26.60;;;;;;;3.35;100.00;97653.60;108054;1264;60093;-65
2022/12/27 07:16:50;;;;;;;37.50;29.40;;;;;;;3.38;100.00;97657.09;108057;1260;59808;-64
2022/12/27 07:19:19;;;;;;;36.90;28.70;;;;;;;3.41;100.00;97659.41;108139;1265;70224;-65
2022/12/27 07:21:47;;;;;;;34.80;25.80;;;;;;;3.42;100.00;97664.35;108081;1260;69209;-65
2022/12/27 07:24:16;;;;;;;36.10;26.30;;;;;;;3.44;100.00;97667.01;108080;1269;68429;-64
2022/12/27 07:26:45;;;;;;;31.10;23.30;;;;;;;3.43;100.00;97676.73;108069;1266;59732;-64
2022/12/27 07:29:14;;;;;;;30.90;23.50;;;;;;;3.36;100.00;97680.41;108043;1269;59750;-66
2022/12/27 07:31:43;;;;;;;82.10;50.60;;;;;;;3.36;100.00;97680.96;108043;1260;71395;-64
2022/12/27 07:34:11;;;;;;;34.40;26.10;;;;;;;3.38;100.00;97678.66;108221;1256;68669;-65
2022/12/27 07:36:41;;;;;;;39.50;27.20;;;;;;;3.36;100.00;97683.38;108137;1264;70099;-64
2022/12/27 07:39:09;;;;;;;49.10;33.10;;;;;;;3.35;100.00;97684.63;108047;1260;59749;-65
2022/12/27 07:41:38;;;;;;;32.90;22.30;;;;;;;3.36;100.00;97686.64;108170;1260;59731;-64
2022/12/27 07:44:09;;;;;;;40.80;29.00;;;;;;;3.37;100.00;97687.48;108104;1269;71233;-65
2022/12/27 07:46:38;;;;;;;38.90;27.70;;;;;;;3.35;100.00;97692.54;108074;1263;68548;-65
2022/12/27 07:49:09;;;;;;;37.90;27.00;;;;;;;3.35;100.00;97703.05;108076;1264;69448;-65
2022/12/27 07:51:45;;;;;;;42.50;29.70;;;;;;;3.36;100.00;97708.21;108080;1264;59726;-65
2022/12/27 07:54:14;;;;;;;43.50;31.80;;;;;;;3.37;100.00;97707.98;108100;1264;59703;-67
2022/12/27 07:56:46;;;;;;;38.00;28.30;;;;;;;3.38;100.00;97714.66;108065;1264;70427;-66
2022/12/27 07:59:14;;;;;;;36.10;26.70;;;;;;;3.41;100.00;97713.16;108072;1264;69845;-66
2022/12/27 08:04:33;;;;;;;33.20;23.50;;;;;;;3.56;100.00;97720.29;108054;1270;59731;-65
2022/12/27 08:07:11;;;;;;;47.70;32.00;;;;;;;3.63;100.00;97721.92;108146;1264;59703;-65
2022/12/27 08:09:42;;;;;;;39.20;28.40;;;;;;;3.68;100.00;97722.44;108016;1264;71272;-65
2022/12/27 08:12:14;;;;;;;36.70;27.20;;;;;;;3.71;100.00;97727.48;108023;1264;69664;-65
2022/12/27 08:14:44;;;;;;;42.60;31.10;;;;;;;3.74;100.00;97727.70;107998;1261;69089;-66
2022/12/27 08:17:21;;;;;;;41.30;31.00;;;;;;;3.76;100.00;97728.65;108021;1258;59729;-66
2022/12/27 08:19:51;;;;;;;39.40;28.90;;;;;;;3.77;100.00;97727.73;108011;1265;59684;-66
2022/12/27 08:22:21;;;;;;;34.50;25.30;;;;;;;3.78;100.00;97729.23;108098;1266;72247;-66
2022/12/27 08:24:50;;;;;;;34.40;26.00;;;;;;;3.80;100.00;97730.75;108121;1260;69189;-66
2022/12/27 08:27:21;;;;;;;40.30;30.50;;;;;;;3.81;100.00;97735.33;107908;1265;69996;-66
2022/12/27 08:29:49;;;;;;;37.60;29.70;;;;;;;3.84;100.00;97739.20;108094;1260;59669;-65
2022/12/27 08:32:18;;;;;;;39.30;28.30;;;;;;;3.85;100.00;97739.67;108053;1264;59728;-65
2022/12/27 08:34:47;;;;;;;42.30;30.10;;;;;;;3.87;100.00;97742.52;108019;1264;71963;-64
2022/12/27 08:37:16;;;;;;;44.30;32.30;;;;;;;3.87;100.00;97739.90;107951;1264;69718;-65
2022/12/27 08:39:44;;;;;;;39.80;29.70;;;;;;;3.89;100.00;97744.52;107747;1267;69743;-65
2022/12/27 08:42:13;;;;;;;35.10;26.20;;;;;;;3.91;100.00;97739.45;107938;1263;59777;-65
2022/12/27 08:56:14;;;;;;;37.40;30.40;;;;;;;4.40;100.00;97735.63;105575;1288;609320;-64
2022/12/27 08:58:43;;;;;;;32.90;25.40;;;;;;;4.52;100.00;97734.96;107037;1280;236249;-64
2022/12/27 09:01:12;;;;;;;38.10;29.20;;;;;;;4.54;100.00;97734.34;107718;1269;57762;-64
2022/12/27 09:03:41;;;;;;;33.30;26.60;;;;;;;4.57;100.00;97729.20;107718;1269;68884;-66
2022/12/27 09:06:16;;;;;;;32.60;27.00;;;;;;;4.60;100.00;97735.29;107707;1269;69321;-66
2022/12/27 09:08:46;;;;;;;34.90;27.10;;;;;;;4.54;100.00;97738.14;107592;1271;69903;-64
2022/12/27 09:11:18;;;;;;;35.70;26.50;;;;;;;4.54;100.00;97739.36;107726;1269;57642;-66
2022/12/27 09:13:47;;;;;;;35.40;26.60;;;;;;;4.54;100.00;97739.19;107718;1266;57645;-67
2022/12/27 09:16:19;;;;;;;37.90;28.30;;;;;;;4.58;100.00;97735.19;107690;1270;69101;-66
2022/12/27 09:18:50;;;;;;;37.40;29.40;;;;;;;4.61;100.00;97737.30;107693;1270;69703;-66
2022/12/27 09:21:21;;;;;;;33.10;26.40;;;;;;;4.63;100.00;97740.51;107644;1268;69882;-66
2022/12/27 09:23:50;;;;;;;34.40;25.20;;;;;;;4.71;100.00;97739.30;107702;1269;58125;-67
2022/12/27 09:26:25;;;;;;;36.10;27.50;;;;;;;4.80;100.00;97737.88;107698;1269;58048;-64
2022/12/27 09:28:55;;;;;;;38.00;28.00;;;;;;;4.91;100.00;97742.56;107716;1271;69761;-64
2022/12/27 09:31:24;;;;;;;34.80;28.50;;;;;;;5.02;100.00;97738.79;107667;1269;69244;-67
2022/12/27 09:33:53;;;;;;;30.50;24.10;;;;;;;5.10;100.00;97743.58;107675;1269;69091;-64
2022/12/27 09:36:28;;;;;;;33.60;24.40;;;;;;;5.18;100.00;97743.42;107578;1270;58145;-66
2022/12/27 09:38:58;;;;;;;32.20;25.10;;;;;;;5.22;100.00;97742.71;107763;1269;58137;-64
2022/12/27 09:42:10;;;;;;;31.20;24.40;;;;;;;5.30;100.00;97742.83;107674;1270;70241;-65
2022/12/27 09:45:11;;;;;;;32.90;25.20;;;;;;;5.39;100.00;97741.92;107548;1270;69793;-66
2022/12/27 09:47:55;;;;;;;30.60;23.80;;;;;;;5.52;100.00;97747.54;107679;1270;68274;-65
2022/12/27 09:50:34;;;;;;;32.10;26.40;;;;;;;5.66;100.00;97751.70;107688;1269;58070;-65
2022/12/27 09:53:28;;;;;;;33.60;27.50;;;;;;;5.75;100.00;97757.17;107707;1269;58109;-65
2022/12/27 09:55:56;;;;;;;33.90;27.90;;;;;;;5.91;100.00;97748.96;107689;1269;69264;-65
2022/12/27 09:58:47;;;;;;;35.50;29.20;;;;;;;6.08;100.00;97748.67;107697;1269;68732;-65
2022/12/27 10:01:30;;;;;;;35.00;27.80;;;;;;;6.22;100.00;97750.61;107667;1268;68732;-65
2022/12/27 10:04:00;;;;;;;31.10;23.20;;;;;;;6.40;100.00;97743.77;107738;1269;58158;-65
2022/12/27 10:06:47;;;;;;;50.10;39.60;;;;;;;6.63;100.00;97739.85;107756;1265;58154;-64
2022/12/27 10:09:38;;;;;;;49.30;39.70;;;;;;;7.49;100.00;97730.72;107728;1269;70522;-65
2022/12/27 10:12:16;;;;;;;47.50;35.60;;;;;;;8.64;97.14;97724.25;107742;1269;68394;-65
2022/12/27 10:15:01;;;;;;;38.10;32.00;;;;;;;9.36;95.96;97731.52;107699;1269;69158;-65
2022/12/27 10:17:56;;;;;;;30.70;26.50;;;;;;;9.62;96.16;97735.24;107665;1265;58078;-65
2022/12/27 10:20:24;;;;;;;28.70;24.90;;;;;;;9.46;91.25;97734.03;107732;1269;58078;-65
2022/12/27 10:22:59;;;;;;;30.80;25.60;;;;;;;9.06;89.88;97732.16;107698;1270;70877;-65
2022/12/27 10:25:34;;;;;;;26.10;21.50;;;;;;;8.52;90.56;97731.98;107678;1270;69883;-64
2022/12/27 10:28:40;;;;;;;28.40;22.80;;;;;;;7.77;92.37;97734.53;107721;1269;69528;-64
2022/12/27 10:31:16;;;;;;;33.20;27.10;;;;;;;7.74;93.66;97730.58;107681;1269;58148;-65
2022/12/27 10:33:46;;;;;;;36.00;29.90;;;;;;;7.77;92.53;97731.26;107729;1270;58213;-65
2022/12/27 10:36:19;;;;;;;39.50;31.90;;;;;;;7.59;93.23;97734.52;107764;1269;69664;-65
2022/12/27 10:38:48;;;;;;;44.80;35.20;;;;;;;7.37;94.63;97737.61;107674;1266;70050;-65
2022/12/27 10:41:48;;;;;;;40.90;33.00;;;;;;;7.18;95.43;97738.66;107638;1270;68750;-66
2022/12/27 10:44:17;;;;;;;39.30;31.40;;;;;;;6.92;95.79;97728.62;107678;1269;58086;-65
2022/12/27 10:46:55;;;;;;;37.40;29.20;;;;;;;6.89;96.49;97728.64;107698;1269;58096;-65
2022/12/27 10:49:29;;;;;;;30.50;24.60;;;;;;;7.28;95.88;97733.61;107730;1268;69711;-66
2022/12/27 10:52:16;;;;;;;25.30;21.40;;;;;;;7.91;92.85;97724.73;107702;1271;69924;-66
2022/12/27 10:54:56;;;;;;;25.30;20.10;;;;;;;8.73;87.89;97726.55;107718;1269;69249;-66
2022/12/27 10:57:28;;;;;;;23.70;19.10;;;;;;;8.98;86.71;97730.77;107715;1269;58111;-65
2022/12/27 11:00:21;;;;;;;22.40;18.30;;;;;;;9.08;85.36;97732.05;107776;1270;58090;-64
2022/12/27 11:02:57;;;;;;;21.40;18.30;;;;;;;9.82;83.09;97732.75;107717;1270;70361;-65
2022/12/27 11:05:30;;;;;;;20.60;17.90;;;;;;;10.46;79.98;97729.16;107692;1270;69259;-65
2022/12/27 11:08:00;;;;;;;20.30;16.50;;;;;;;11.40;76.81;97730.59;107868;1266;68468;-65
2022/12/27 11:10:30;;;;;;;17.40;14.60;;;;;;;12.05;74.23;97737.45;107895;1263;58160;-66
2022/12/27 11:13:16;;;;;;;16.10;13.70;;;;;;;12.54;71.09;97733.31;107994;1266;58098;-65
2022/12/27 11:15:56;;;;;;;17.50;15.30;;;;;;;12.94;69.71;97741.33;107990;1263;69618;-66
2022/12/27 11:18:26;;;;;;;17.50;15.00;;;;;;;13.07;67.64;97744.42;107864;1267;69409;-65
2022/12/27 11:20:58;;;;;;;17.00;15.20;;;;;;;12.66;69.25;97746.73;107858;1267;68720;-65
2022/12/27 11:23:43;;;;;;;17.00;15.20;;;;;;;12.49;68.96;97750.63;107829;1267;58121;-65
2022/12/27 11:26:23;;;;;;;17.20;15.40;;;;;;;12.89;67.25;97747.05;107933;1267;58087;-65
2022/12/27 11:29:00;;;;;;;17.30;15.50;;;;;;;13.11;67.43;97748.18;107744;1266;69161;-65
2022/12/27 11:31:29;;;;;;;20.70;17.20;;;;;;;13.76;65.75;97746.75;107689;1267;69197;-65
2022/12/27 11:34:20;;;;;;;18.30;16.50;;;;;;;14.26;64.13;97744.63;107628;1262;69489;-65
2022/12/27 11:36:51;;;;;;;19.00;16.60;;;;;;;14.16;63.28;97743.98;107986;1268;58205;-65
2022/12/27 11:39:39;;;;;;;17.90;15.70;;;;;;;14.43;63.05;97741.27;107885;1267;58150;-65
2022/12/27 11:42:30;;;;;;;15.80;14.30;;;;;;;14.61;61.27;97744.14;107859;1266;69591;-65
2022/12/27 11:45:17;;;;;;;15.60;14.00;;;;;;;14.61;60.22;97738.90;107978;1267;69806;-64
2022/12/27 11:48:06;;;;;;;15.00;13.30;;;;;;;14.20;61.47;97743.86;107842;1263;69218;-64
2022/12/27 11:50:57;;;;;;;13.40;11.90;;;;;;;14.41;61.28;97744.61;107879;1264;58150;-66
2022/12/27 11:53:39;;;;;;;14.40;12.40;;;;;;;14.40;60.55;97742.57;107917;1266;58087;-65
2022/12/27 11:56:08;;;;;;;14.00;11.10;;;;;;;14.56;60.40;97744.77;107924;1266;69735;-65
2022/12/27 11:58:57;;;;;;;13.10;11.80;;;;;;;13.93;61.84;97745.06;107901;1266;68415;-67
2022/12/27 12:01:59;;;;;;;12.00;10.40;;;;;;;13.42;62.87;97744.52;107860;1267;68330;-66
2022/12/27 12:04:43;;;;;;;12.80;11.50;;;;;;;11.94;66.97;97743.85;107872;1267;58080;-66
2022/12/27 12:07:36;;;;;;;11.50;10.30;;;;;;;11.02;70.17;97741.65;107900;1266;58132;-67
2022/12/27 12:10:43;;;;;;;12.40;10.90;;;;;;;10.78;71.75;97747.50;107882;1267;69249;-65
2022/12/27 12:13:17;;;;;;;13.40;11.40;;;;;;;10.41;74.23;97743.38;107838;1266;70021;-67
2022/12/27 12:15:51;;;;;;;13.10;10.20;;;;;;;10.27;75.42;97740.15;107908;1267;69277;-69
2022/12/27 12:18:35;;;;;;;11.80;8.70;;;;;;;10.26;78.05;97741.81;107872;1267;58582;-66
2022/12/27 12:21:28;;;;;;;11.80;9.70;;;;;;;10.33;76.54;97741.47;107917;1265;58046;-66
2022/12/27 12:24:09;;;;;;;10.80;9.10;;;;;;;10.33;75.79;97750.00;107988;1267;70472;-66
2022/12/27 12:27:07;;;;;;;16.90;14.10;;;;;;;10.42;76.35;97754.13;107882;1264;69174;-68
2022/12/27 12:29:44;;;;;;;15.50;13.20;;;;;;;10.98;75.09;97751.20;107687;1267;69959;-71
2022/12/27 12:32:41;;;;;;;16.30;13.60;;;;;;;12.00;72.17;97755.67;107830;1262;58123;-68
2022/12/27 12:35:23;;;;;;;15.00;13.30;;;;;;;12.91;67.57;97753.75;108051;1267;58083;-66
2022/12/27 12:38:25;;;;;;;15.20;13.70;;;;;;;13.73;65.66;97757.11;107933;1267;70399;-69
2022/12/27 12:41:31;;;;;;;15.70;12.80;;;;;;;14.43;63.86;97755.42;107954;1266;69797;-65
2022/12/27 12:44:28;;;;;;;14.60;12.60;;;;;;;15.11;60.64;97759.61;107986;1268;69598;-66
2022/12/27 12:47:07;;;;;;;15.50;13.90;;;;;;;15.16;59.55;97759.71;107991;1266;58152;-66
2022/12/27 12:49:55;;;;;;;15.00;13.40;;;;;;;15.35;59.22;97757.85;108014;1261;58107;-66
2022/12/27 12:52:42;;;;;;;14.20;12.80;;;;;;;15.85;57.60;97758.91;107969;1266;68197;-67
2022/12/27 12:55:26;;;;;;;14.90;13.40;;;;;;;15.68;57.44;97751.23;107988;1267;68251;-66
2022/12/27 12:58:09;;;;;;;;;;;;;;;15.40;57.82;97754.94;107996;1266;69561;-67
2022/12/27 13:00:54;;;;;;;15.40;13.80;;;;;;;15.97;56.28;97762.28;107968;1266;58184;-66
2022/12/27 13:03:45;;;;;;;13.00;11.70;;;;;;;15.50;57.39;97766.73;107966;1266;58021;-65
2022/12/27 13:06:45;;;;;;;15.50;13.90;;;;;;;15.77;56.43;97771.58;107905;1263;68652;-66
2022/12/27 13:09:37;;;;;;;;;;;;;;;15.18;57.06;97771.30;107932;1261;69228;-64
2022/12/27 13:12:32;;;;;;;12.00;10.70;;;;;;;15.89;56.50;97770.41;107873;1263;70435;-66
2022/12/27 13:15:01;;;;;;;13.40;12.00;;;;;;;16.03;55.61;97764.57;107874;1265;58155;-65
2022/12/27 13:17:41;;;;;;;13.20;11.80;;;;;;;16.43;55.12;97764.10;107897;1267;58087;-64
2022/12/27 13:20:31;;;;;;;8.60;7.70;;;;;;;15.94;54.62;97763.90;107902;1267;70440;-64
2022/12/27 13:23:09;;;;;;;8.90;7.50;;;;;;;15.29;54.08;97760.27;107914;1267;69892;-65
2022/12/27 13:26:06;;;;;;;10.30;9.00;;;;;;;15.35;55.60;97760.48;107927;1267;69640;-64
2022/12/27 13:28:53;;;;;;;10.00;8.10;;;;;;;15.34;55.61;97762.16;107958;1267;58990;-64
2022/12/27 13:31:49;;;;;;;12.60;10.50;;;;;;;15.76;53.52;97766.77;107985;1266;58887;-64
2022/12/27 13:34:36;;;;;;;7.90;7.10;;;;;;;16.18;51.80;97768.66;107966;1267;69583;-64
2022/12/27 13:37:14;;;;;;;7.50;6.70;;;;;;;16.26;51.13;97771.11;107983;1267;69182;-64
2022/12/27 13:40:02;;;;;;;7.30;6.50;;;;;;;15.26;52.06;97765.98;107957;1266;68439;-64
2022/12/27 13:42:43;;;;;;;;;;;;;;;14.65;53.45;97768.74;107947;1266;58979;-64
2022/12/27 13:45:37;;;;;;;6.20;5.30;;;;;;;15.15;52.47;97771.48;107922;1266;58939;-64